»·PEaware :: UAL319 KLAX-KPSP

UAL319 :: KLAX-KPSP

FLIGHT INFORMATION

Flight Status: Arrived
Operator:
United Airlines
More flights by this operator :: More flights under this callsign
Pilot: Erik K. (18332)
Aircraft: BOEING 727-100
(B721)
More flights by this aircraft type
Origin: KLAX Los Angeles Intl
United States
Destination: KPSP Palm Springs Intl
United States
More flights between these airports :: More routes between these airports
Route: +LAXX1 SLI V64 TRM
File this flight plan on PilotEdge
Remarks:
Altitude:
(Current/Filed)
17,000ft
Speed:
(Current/Filed)
300kts
Departed: 27-Apr-19 05:57 PM
Arrived: 27-Apr-19 06:37 PM
Distance/Time
Traveled:
95nm/0:40
Distance/Time
To Go:
Arrived

Flight Plot

Page will automatically refresh every two minutes.

Flight plan parsing failed; only flown route is shown


Map Options




Map Legend


Flown Route
Filed Route
Departure Airport
Arrival Airport
Navaid (VOR, NDB)
Fix

Horizontal Profiles

Position Reports

Time Latitude Longitude Heading Altitude Ground
Speed
27-Apr-19 17:39 33.946404 -118.402423 352 127ft 0kts
27-Apr-19 17:39 33.946404 -118.402423 352 127ft 0kts
27-Apr-19 17:40 33.946404 -118.402423 352 127ft 0kts
27-Apr-19 17:41 33.946404 -118.402423 352 127ft 0kts
27-Apr-19 17:42 33.946404 -118.402423 352 127ft 0kts
27-Apr-19 17:43 33.946404 -118.402423 352 127ft 0kts
27-Apr-19 17:44 33.946404 -118.402423 352 127ft 0kts
27-Apr-19 17:45 33.946404 -118.402423 352 127ft 0kts
27-Apr-19 17:46 33.946404 -118.402423 352 127ft 0kts
27-Apr-19 17:47 33.948583 -118.402881 338 127ft 7kts
27-Apr-19 17:48 33.949121 -118.402162 77 125ft 0kts
27-Apr-19 17:49 33.949121 -118.402162 77 125ft 0kts
27-Apr-19 17:50 33.949121 -118.402162 77 125ft 0kts
27-Apr-19 17:51 33.949121 -118.402162 77 125ft 0kts
27-Apr-19 17:52 33.949121 -118.402162 77 125ft 0kts
27-Apr-19 17:53 33.949121 -118.402162 77 125ft 0kts
27-Apr-19 17:54 33.949121 -118.402162 77 125ft 0kts
27-Apr-19 17:55 33.949121 -118.402162 77 125ft 0kts
27-Apr-19 17:56 33.949332 -118.409216 262 132ft 113kts
27-Apr-19 17:57 33.945506 -118.465501 267 2578ft 226kts
27-Apr-19 17:58 33.940832 -118.561688 265 2941ft 293kts
27-Apr-19 17:59 33.904066 -118.643186 199 6751ft 290kts
27-Apr-19 18:00 33.831016 -118.621835 143 11052ft 314kts
27-Apr-19 18:01 33.750146 -118.541083 142 11087ft 417kts
27-Apr-19 18:02 33.654717 -118.446554 142 11855ft 446kts
27-Apr-19 18:03 33.600633 -118.343310 89 15148ft 419kts
27-Apr-19 18:04 33.610321 -118.186110 87 13080ft 492kts
27-Apr-19 18:05 33.613664 -118.033360 88 13075ft 421kts
27-Apr-19 18:06 33.615911 -117.891986 88 13065ft 414kts
27-Apr-19 18:07 33.617781 -117.758011 88 13066ft 388kts
27-Apr-19 18:08 33.619355 -117.631693 88 13065ft 368kts
27-Apr-19 18:09 33.620761 -117.510515 88 13061ft 353kts
27-Apr-19 18:10 33.622026 -117.394523 88 13054ft 341kts
27-Apr-19 18:11 33.622905 -117.281886 89 13047ft 330kts
27-Apr-19 18:12 33.623785 -117.169393 88 13056ft 348kts
27-Apr-19 18:13 33.624764 -117.047725 88 13022ft 383kts
27-Apr-19 18:14 33.625708 -116.917261 89 12919ft 379kts
27-Apr-19 18:15 33.626431 -116.796379 89 12880ft 346kts
27-Apr-19 18:16 33.626984 -116.685144 89 11902ft 341kts
27-Apr-19 18:17 33.627412 -116.578648 88 9095ft 294kts
27-Apr-19 18:18 33.627717 -116.485694 88 9051ft 262kts
27-Apr-19 18:19 33.627936 -116.403851 88 9030ft 228kts
27-Apr-19 18:20 33.627995 -116.330405 89 9041ft 215kts
27-Apr-19 18:21 33.627913 -116.255990 89 9046ft 231kts
27-Apr-19 18:22 33.628066 -116.175400 89 9036ft 247kts
27-Apr-19 18:23 33.628435 -116.089152 89 8297ft 273kts
27-Apr-19 18:24 33.580815 -116.037990 194 6037ft 266kts
27-Apr-19 18:25 33.562273 -116.099281 326 3989ft 188kts
27-Apr-19 18:26 33.604971 -116.117407 313 3933ft 154kts
27-Apr-19 18:27 33.629367 -116.160626 303 4074ft 173kts
27-Apr-19 18:28 33.662055 -116.217690 305 4155ft 237kts
27-Apr-19 18:29 33.702045 -116.286931 305 3078ft 220kts
27-Apr-19 18:30 33.727967 -116.332718 306 2908ft 124kts
27-Apr-19 18:31 33.750079 -116.371796 307 3157ft 144kts
27-Apr-19 18:32 33.769954 -116.416975 289 2763ft 146kts
27-Apr-19 18:33 33.778414 -116.459240 297 1226ft 123kts
27-Apr-19 18:34 33.803224 -116.484572 322 900ft 118kts
27-Apr-19 18:35 33.829164 -116.507343 323 434ft 76kts
27-Apr-19 18:36 33.832902 -116.511904 202 434ft 0kts
27-Apr-19 18:37 33.832902 -116.511904 202 434ft 0kts
27-Apr-19 18:38 33.829810 -116.509904 144 434ft 28kts
27-Apr-19 18:39 33.824297 -116.506476 181 434ft 8kts

Navigation Log

Ident Type
Flight plan parsing failed, navigation log unavailable